sensor_id;sensor_type;location;lat;lon;timestamp;pressure;altitude;pressure_sealevel;temperature;humidity
25658;BME280;13517;59.320;18.042;2023-08-24T00:01:09;100733.69;;;16.27;100.00
25658;BME280;13517;59.320;18.042;2023-08-24T00:03:37;100732.69;;;16.28;100.00
25658;BME280;13517;59.320;18.042;2023-08-24T00:06:02;100733.69;;;16.27;100.00
25658;BME280;13517;59.320;18.042;2023-08-24T00:08:28;100738.13;;;16.28;100.00
25658;BME280;13517;59.320;18.042;2023-08-24T00:10:53;100718.75;;;16.21;100.00
25658;BME280;13517;59.320;18.042;2023-08-24T00:13:19;100731.09;;;16.25;100.00
25658;BME280;13517;59.320;18.042;2023-08-24T00:15:45;100722.59;;;16.18;100.00
25658;BME280;13517;59.320;18.042;2023-08-24T00:18:10;100703.31;;;16.00;100.00
25658;BME280;13517;59.320;18.042;2023-08-24T00:20:36;100731.63;;;16.19;100.00
25658;BME280;13517;59.320;18.042;2023-08-24T00:23:02;100738.66;;;16.22;100.00
25658;BME280;13517;59.320;18.042;2023-08-24T00:25:28;100739.69;;;16.20;100.00
25658;BME280;13517;59.320;18.042;2023-08-24T00:27:53;100662.13;;;15.72;100.00
25658;BME280;13517;59.320;18.042;2023-08-24T00:30:19;100760.75;;;16.18;100.00
25658;BME280;13517;59.320;18.042;2023-08-24T00:32:44;100688.41;;;15.83;100.00
25658;BME280;13517;59.320;18.042;2023-08-24T00:35:10;100697.19;;;15.87;100.00
25658;BME280;13517;59.320;18.042;2023-08-24T00:37:36;100743.22;;;16.11;100.00
25658;BME280;13517;59.320;18.042;2023-08-24T00:40:03;100749.53;;;16.12;100.00
25658;BME280;13517;59.320;18.042;2023-08-24T00:42:30;100717.84;;;15.89;100.00
25658;BME280;13517;59.320;18.042;2023-08-24T00:44:57;100740.75;;;16.08;100.00
25658;BME280;13517;59.320;18.042;2023-08-24T00:47:23;100744.47;;;16.07;100.00
25658;BME280;13517;59.320;18.042;2023-08-24T00:49:49;100718.34;;;15.95;100.00
25658;BME280;13517;59.320;18.042;2023-08-24T00:52:14;100737.72;;;16.01;100.00
25658;BME280;13517;59.320;18.042;2023-08-24T00:54:41;100725.63;;;15.94;100.00
25658;BME280;13517;59.320;18.042;2023-08-24T00:57:06;100747.50;;;16.04;100.00
25658;BME280;13517;59.320;18.042;2023-08-24T00:59:33;100725.63;;;15.94;100.00
25658;BME280;13517;59.320;18.042;2023-08-24T01:01:59;100732.69;;;15.97;100.00
25658;BME280;13517;59.320;18.042;2023-08-24T01:04:25;100738.84;;;15.99;100.00
25658;BME280;13517;59.320;18.042;2023-08-24T01:06:51;100737.13;;;15.98;100.00
25658;BME280;13517;59.320;18.042;2023-08-24T01:09:18;100739.38;;;15.92;100.00
25658;BME280;13517;59.320;18.042;2023-08-24T01:14:59;100745.09;;;15.89;100.00
25658;BME280;13517;59.320;18.042;2023-08-24T01:17:29;100747.56;;;15.92;100.00
25658;BME280;13517;59.320;18.042;2023-08-24T01:19:58;100738.63;;;15.90;100.00
25658;BME280;13517;59.320;18.042;2023-08-24T01:25:51;100739.44;;;15.81;100.00
25658;BME280;13517;59.320;18.042;2023-08-24T01:28:19;100737.03;;;15.88;100.00
25658;BME280;13517;59.320;18.042;2023-08-24T01:30:46;100660.22;;;15.42;100.00
25658;BME280;13517;59.320;18.042;2023-08-24T01:33:12;100739.63;;;15.89;100.00
25658;BME280;13517;59.320;18.042;2023-08-24T01:35:38;100659.50;;;15.39;100.00
25658;BME280;13517;59.320;18.042;2023-08-24T01:38:04;100734.19;;;15.89;100.00
25658;BME280;13517;59.320;18.042;2023-08-24T01:40:55;100739.28;;;15.83;100.00
25658;BME280;13517;59.320;18.042;2023-08-24T01:43:29;100735.84;;;15.80;100.00
25658;BME280;13517;59.320;18.042;2023-08-24T01:45:56;100728.06;;;15.76;100.00
25658;BME280;13517;59.320;18.042;2023-08-24T01:48:23;100693.06;;;15.50;100.00
25658;BME280;13517;59.320;18.042;2023-08-24T01:50:50;100735.13;;;15.78;100.00
25658;BME280;13517;59.320;18.042;2023-08-24T01:53:16;100734.97;;;15.80;100.00
25658;BME280;13517;59.320;18.042;2023-08-24T01:55:41;100728.91;;;15.76;100.00
25658;BME280;13517;59.320;18.042;2023-08-24T01:58:08;100729.94;;;15.75;100.00
25658;BME280;13517;59.320;18.042;2023-08-24T02:00:33;100716.72;;;15.71;100.00
25658;BME280;13517;59.320;18.042;2023-08-24T02:02:58;100685.91;;;15.49;100.00
25658;BME280;13517;59.320;18.042;2023-08-24T02:08:45;100724.16;;;15.69;100.00
25658;BME280;13517;59.320;18.042;2023-08-24T02:11:11;100728.59;;;15.70;100.00
25658;BME280;13517;59.320;18.042;2023-08-24T02:13:36;100739.50;;;15.70;100.00
25658;BME280;13517;59.320;18.042;2023-08-24T02:16:05;100665.00;;;15.28;100.00
25658;BME280;13517;59.320;18.042;2023-08-24T02:18:31;100733.06;;;15.71;100.00
25658;BME280;13517;59.320;18.042;2023-08-24T02:20:57;100720.25;;;15.61;100.00
25658;BME280;13517;59.320;18.042;2023-08-24T02:23:23;100719.13;;;15.64;100.00
25658;BME280;13517;59.320;18.042;2023-08-24T02:25:48;100724.69;;;15.62;100.00
25658;BME280;13517;59.320;18.042;2023-08-24T02:28:13;100733.47;;;15.66;100.00
25658;BME280;13517;59.320;18.042;2023-08-24T02:30:39;100722.09;;;15.61;100.00
25658;BME280;13517;59.320;18.042;2023-08-24T02:33:05;100731.84;;;15.63;100.00
25658;BME280;13517;59.320;18.042;2023-08-24T02:35:30;100717.94;;;15.57;100.00
25658;BME280;13517;59.320;18.042;2023-08-24T02:37:56;100721.25;;;15.60;100.00
25658;BME280;13517;59.320;18.042;2023-08-24T02:40:22;100724.81;;;15.61;100.00
25658;BME280;13517;59.320;18.042;2023-08-24T02:42:48;100712.59;;;15.55;100.00
25658;BME280;13517;59.320;18.042;2023-08-24T02:45:13;100725.94;;;15.58;100.00
25658;BME280;13517;59.320;18.042;2023-08-24T02:47:38;100717.56;;;15.50;100.00
25658;BME280;13517;59.320;18.042;2023-08-24T02:50:05;100722.50;;;15.56;100.00
25658;BME280;13517;59.320;18.042;2023-08-24T02:52:31;100719.91;;;15.55;100.00
25658;BME280;13517;59.320;18.042;2023-08-24T02:54:57;100712.13;;;15.50;100.00
25658;BME280;13517;59.320;18.042;2023-08-24T02:57:23;100711.66;;;15.45;100.00
25658;BME280;13517;59.320;18.042;2023-08-24T02:59:48;100725.50;;;15.53;100.00
25658;BME280;13517;59.320;18.042;2023-08-24T03:02:14;100732.91;;;15.51;100.00
25658;BME280;13517;59.320;18.042;2023-08-24T03:04:39;100723.91;;;15.50;100.00
25658;BME280;13517;59.320;18.042;2023-08-24T03:07:04;100717.69;;;15.48;100.00
25658;BME280;13517;59.320;18.042;2023-08-24T03:09:36;100721.56;;;15.46;100.00
25658;BME280;13517;59.320;18.042;2023-08-24T03:12:02;100648.78;;;15.05;100.00
25658;BME280;13517;59.320;18.042;2023-08-24T03:14:28;100719.22;;;15.41;100.00
25658;BME280;13517;59.320;18.042;2023-08-24T03:16:53;100696.91;;;15.26;100.00
25658;BME280;13517;59.320;18.042;2023-08-24T03:19:18;100704.81;;;15.29;100.00
25658;BME280;13517;59.320;18.042;2023-08-24T03:21:44;100701.25;;;15.29;100.00
25658;BME280;13517;59.320;18.042;2023-08-24T03:24:09;100714.56;;;15.32;100.00
25658;BME280;13517;59.320;18.042;2023-08-24T03:26:36;100707.53;;;15.29;100.00
25658;BME280;13517;59.320;18.042;2023-08-24T03:29:01;100702.25;;;15.28;100.00
25658;BME280;13517;59.320;18.042;2023-08-24T03:31:26;100698.16;;;15.22;100.00
25658;BME280;13517;59.320;18.042;2023-08-24T03:33:52;100654.66;;;14.89;100.00
25658;BME280;13517;59.320;18.042;2023-08-24T03:36:17;100714.25;;;15.25;100.00
25658;BME280;13517;59.320;18.042;2023-08-24T03:38:44;100700.16;;;15.20;100.00
25658;BME280;13517;59.320;18.042;2023-08-24T03:41:10;100709.81;;;15.24;100.00
25658;BME280;13517;59.320;18.042;2023-08-24T03:43:36;100697.72;;;15.17;100.00
25658;BME280;13517;59.320;18.042;2023-08-24T03:46:03;100650.31;;;14.87;100.00
25658;BME280;13517;59.320;18.042;2023-08-24T03:48:32;100709.31;;;15.19;100.00
25658;BME280;13517;59.320;18.042;2023-08-24T03:50:58;100709.31;;;15.19;100.00
25658;BME280;13517;59.320;18.042;2023-08-24T03:53:24;100710.03;;;15.21;100.00
25658;BME280;13517;59.320;18.042;2023-08-24T03:55:50;100705.31;;;15.23;100.00
25658;BME280;13517;59.320;18.042;2023-08-24T03:58:17;100694.25;;;15.15;100.00
25658;BME280;13517;59.320;18.042;2023-08-24T04:00:43;100699.88;;;15.23;100.00
25658;BME280;13517;59.320;18.042;2023-08-24T04:03:09;100698.69;;;15.16;100.00
25658;BME280;13517;59.320;18.042;2023-08-24T04:05:34;100651.94;;;14.89;100.00
25658;BME280;13517;59.320;18.042;2023-08-24T04:07:59;100705.47;;;15.21;100.00
25658;BME280;13517;59.320;18.042;2023-08-24T04:10:26;100715.97;;;15.26;100.00
25658;BME280;13517;59.320;18.042;2023-08-24T04:12:52;100688.88;;;15.24;100.00
25658;BME280;13517;59.320;18.042;2023-08-24T04:15:17;100680.13;;;15.21;100.00
25658;BME280;13517;59.320;18.042;2023-08-24T04:17:43;100710.22;;;15.41;100.00
25658;BME280;13517;59.320;18.042;2023-08-24T04:20:09;100689.97;;;15.33;100.00
25658;BME280;13517;59.320;18.042;2023-08-24T04:22:35;100711.81;;;15.43;100.00
25658;BME280;13517;59.320;18.042;2023-08-24T04:25:00;100705.84;;;15.49;100.00
25658;BME280;13517;59.320;18.042;2023-08-24T04:27:26;100716.56;;;15.51;100.00
25658;BME280;13517;59.320;18.042;2023-08-24T04:29:52;100688.56;;;15.39;100.00
25658;BME280;13517;59.320;18.042;2023-08-24T04:32:17;100692.88;;;15.42;100.00
25658;BME280;13517;59.320;18.042;2023-08-24T04:34:43;100700.72;;;15.56;100.00
25658;BME280;13517;59.320;18.042;2023-08-24T04:37:08;100710.53;;;15.69;100.00
25658;BME280;13517;59.320;18.042;2023-08-24T04:39:34;100708.66;;;15.69;100.00
25658;BME280;13517;59.320;18.042;2023-08-24T04:42:00;100704.41;;;15.76;100.00
25658;BME280;13517;59.320;18.042;2023-08-24T04:44:25;100718.38;;;15.83;100.00
25658;BME280;13517;59.320;18.042;2023-08-24T04:46:51;100678.00;;;15.67;100.00
25658;BME280;13517;59.320;18.042;2023-08-24T04:49:16;100711.78;;;15.86;100.00
25658;BME280;13517;59.320;18.042;2023-08-24T04:51:42;100710.66;;;15.88;100.00
25658;BME280;13517;59.320;18.042;2023-08-24T04:54:07;100710.06;;;15.85;100.00
25658;BME280;13517;59.320;18.042;2023-08-24T04:56:33;100703.03;;;15.82;100.00
25658;BME280;13517;59.320;18.042;2023-08-24T04:58:59;100726.50;;;15.95;100.00
25658;BME280;13517;59.320;18.042;2023-08-24T05:01:26;100709.88;;;15.98;100.00
25658;BME280;13517;59.320;18.042;2023-08-24T05:03:53;100712.53;;;16.09;100.00
25658;BME280;13517;59.320;18.042;2023-08-24T05:06:19;100699.88;;;16.08;100.00
25658;BME280;13517;59.320;18.042;2023-08-24T05:08:45;100687.66;;;16.02;100.00
25658;BME280;13517;59.320;18.042;2023-08-24T05:11:16;100715.28;;;16.19;100.00
25658;BME280;13517;59.320;18.042;2023-08-24T05:13:41;100703.41;;;16.20;100.00
25658;BME280;13517;59.320;18.042;2023-08-24T05:16:07;100722.91;;;16.25;100.00
25658;BME280;13517;59.320;18.042;2023-08-24T05:18:34;100717.44;;;16.25;100.00
25658;BME280;13517;59.320;18.042;2023-08-24T05:21:00;100719.03;;;16.28;100.00
25658;BME280;13517;59.320;18.042;2023-08-24T05:23:25;100718.91;;;16.29;100.00
25658;BME280;13517;59.320;18.042;2023-08-24T05:25:51;100699.13;;;16.27;100.00
25658;BME280;13517;59.320;18.042;2023-08-24T05:28:16;100701.38;;;16.22;100.00
25658;BME280;13517;59.320;18.042;2023-08-24T05:30:41;100715.53;;;16.37;100.00
25658;BME280;13517;59.320;18.042;2023-08-24T05:33:07;100721.94;;;16.36;100.00
25658;BME280;13517;59.320;18.042;2023-08-24T05:35:32;100711.91;;;16.37;100.00
25658;BME280;13517;59.320;18.042;2023-08-24T05:37:58;100713.47;;;16.29;100.00
25658;BME280;13517;59.320;18.042;2023-08-24T05:40:23;100684.72;;;16.15;100.00
25658;BME280;13517;59.320;18.042;2023-08-24T05:42:49;100723.28;;;16.42;100.00
25658;BME280;13517;59.320;18.042;2023-08-24T05:45:14;100683.91;;;16.25;100.00
25658;BME280;13517;59.320;18.042;2023-08-24T05:47:39;100720.84;;;16.48;100.00
25658;BME280;13517;59.320;18.042;2023-08-24T05:50:05;100660.00;;;16.07;100.00
25658;BME280;13517;59.320;18.042;2023-08-24T05:52:31;100720.72;;;16.50;100.00
25658;BME280;13517;59.320;18.042;2023-08-24T05:54:56;100711.22;;;16.44;100.00
25658;BME280;13517;59.320;18.042;2023-08-24T05:57:22;100718.56;;;16.54;100.00
25658;BME280;13517;59.320;18.042;2023-08-24T05:59:47;100713.13;;;16.54;100.00
25658;BME280;13517;59.320;18.042;2023-08-24T06:02:12;100719.03;;;16.59;100.00
25658;BME280;13517;59.320;18.042;2023-08-24T06:04:38;100723.06;;;16.65;100.00
25658;BME280;13517;59.320;18.042;2023-08-24T06:07:03;100719.91;;;16.69;100.00
25658;BME280;13517;59.320;18.042;2023-08-24T06:09:30;100720.34;;;16.74;100.00
25658;BME280;13517;59.320;18.042;2023-08-24T06:11:57;100730.53;;;16.82;100.00
25658;BME280;13517;59.320;18.042;2023-08-24T06:14:22;100710.44;;;16.73;100.00
25658;BME280;13517;59.320;18.042;2023-08-24T06:16:47;100705.00;;;16.73;100.00
25658;BME280;13517;59.320;18.042;2023-08-24T06:19:13;100692.91;;;16.66;100.00
25658;BME280;13517;59.320;18.042;2023-08-24T06:21:39;100717.06;;;16.81;100.00
25658;BME280;13517;59.320;18.042;2023-08-24T06:24:04;100717.47;;;16.86;100.00
25658;BME280;13517;59.320;18.042;2023-08-24T06:26:30;100699.53;;;16.73;100.00
25658;BME280;13517;59.320;18.042;2023-08-24T06:28:55;100713.63;;;16.88;100.00
25658;BME280;13517;59.320;18.042;2023-08-24T06:31:21;100706.56;;;16.86;100.00
25658;BME280;13517;59.320;18.042;2023-08-24T06:33:49;100731.69;;;16.89;100.00
25658;BME280;13517;59.320;18.042;2023-08-24T06:36:14;100725.97;;;16.93;100.00
25658;BME280;13517;59.320;18.042;2023-08-24T06:38:40;100732.03;;;16.96;100.00
25658;BME280;13517;59.320;18.042;2023-08-24T06:41:05;100714.34;;;16.81;100.00
25658;BME280;13517;59.320;18.042;2023-08-24T06:43:31;100724.31;;;17.01;100.00
25658;BME280;13517;59.320;18.042;2023-08-24T06:45:56;100740.69;;;17.21;100.00
25658;BME280;13517;59.320;18.042;2023-08-24T06:48:22;100731.78;;;17.29;100.00
25658;BME280;13517;59.320;18.042;2023-08-24T06:50:48;100728.03;;;17.30;100.00
25658;BME280;13517;59.320;18.042;2023-08-24T06:53:13;100724.47;;;17.29;100.00
25658;BME280;13517;59.320;18.042;2023-08-24T06:55:40;100730.19;;;17.36;100.00
25658;BME280;13517;59.320;18.042;2023-08-24T06:58:05;100730.63;;;17.41;100.00
25658;BME280;13517;59.320;18.042;2023-08-24T07:00:31;100733.38;;;17.41;100.00
25658;BME280;13517;59.320;18.042;2023-08-24T07:02:57;100723.72;;;17.27;100.00
25658;BME280;13517;59.320;18.042;2023-08-24T07:05:23;100733.94;;;17.25;100.00
25658;BME280;13517;59.320;18.042;2023-08-24T07:07:52;100735.50;;;17.18;100.00
25658;BME280;13517;59.320;18.042;2023-08-24T07:10:19;100738.13;;;17.20;100.00
25658;BME280;13517;59.320;18.042;2023-08-24T07:12:44;100731.34;;;17.14;100.00
25658;BME280;13517;59.320;18.042;2023-08-24T07:15:13;100726.63;;;17.26;100.00
25658;BME280;13517;59.320;18.042;2023-08-24T07:17:38;100723.72;;;17.47;100.00
25658;BME280;13517;59.320;18.042;2023-08-24T07:20:05;100741.94;;;17.76;100.00
25658;BME280;13517;59.320;18.042;2023-08-24T07:22:31;100732.16;;;17.83;100.00
25658;BME280;13517;59.320;18.042;2023-08-24T07:24:57;100735.44;;;17.97;100.00
25658;BME280;13517;59.320;18.042;2023-08-24T07:27:22;100732.00;;;17.95;100.00
25658;BME280;13517;59.320;18.042;2023-08-24T07:29:47;100736.31;;;17.88;100.00
25658;BME280;13517;59.320;18.042;2023-08-24T07:32:13;100738.38;;;17.76;100.00
25658;BME280;13517;59.320;18.042;2023-08-24T07:34:38;100738.38;;;17.66;100.00
25658;BME280;13517;59.320;18.042;2023-08-24T07:37:04;100729.31;;;17.55;100.00
25658;BME280;13517;59.320;18.042;2023-08-24T07:39:29;100742.13;;;17.65;100.00
25658;BME280;13517;59.320;18.042;2023-08-24T07:41:55;100736.09;;;17.61;100.00
25658;BME280;13517;59.320;18.042;2023-08-24T07:44:20;100738.78;;;17.71;100.00
25658;BME280;13517;59.320;18.042;2023-08-24T07:46:47;100742.16;;;18.03;100.00
25658;BME280;13517;59.320;18.042;2023-08-24T07:49:12;100749.78;;;18.19;100.00
25658;BME280;13517;59.320;18.042;2023-08-24T07:51:38;100708.97;;;18.07;100.00
25658;BME280;13517;59.320;18.042;2023-08-24T07:54:03;100748.00;;;18.37;100.00
25658;BME280;13517;59.320;18.042;2023-08-24T07:56:30;100731.53;;;18.19;100.00
25658;BME280;13517;59.320;18.042;2023-08-24T07:58:55;100752.72;;;18.35;100.00
25658;BME280;13517;59.320;18.042;2023-08-24T08:01:21;100758.59;;;18.50;100.00
25658;BME280;13517;59.320;18.042;2023-08-24T08:03:46;100741.47;;;18.48;100.00
25658;BME280;13517;59.320;18.042;2023-08-24T08:06:12;100733.72;;;18.44;100.00
25658;BME280;13517;59.320;18.042;2023-08-24T08:08:38;100752.50;;;18.57;100.00
25658;BME280;13517;59.320;18.042;2023-08-24T08:11:04;100758.84;;;18.85;100.00
25658;BME280;13517;59.320;18.042;2023-08-24T08:13:29;100755.41;;;19.01;100.00
25658;BME280;13517;59.320;18.042;2023-08-24T08:16:06;100763.59;;;19.11;100.00
25658;BME280;13517;59.320;18.042;2023-08-24T08:18:32;100753.19;;;19.15;100.00
25658;BME280;13517;59.320;18.042;2023-08-24T08:20:57;100766.81;;;19.25;100.00
25658;BME280;13517;59.320;18.042;2023-08-24T08:23:23;100760.94;;;19.19;100.00
25658;BME280;13517;59.320;18.042;2023-08-24T08:25:48;100768.53;;;19.26;100.00
25658;BME280;13517;59.320;18.042;2023-08-24T08:28:14;100765.50;;;19.11;100.00
25658;BME280;13517;59.320;18.042;2023-08-24T08:30:39;100773.69;;;19.11;100.00
25658;BME280;13517;59.320;18.042;2023-08-24T08:33:04;100772.13;;;19.08;100.00
25658;BME280;13517;59.320;18.042;2023-08-24T08:35:30;100781.66;;;19.22;100.00
25658;BME280;13517;59.320;18.042;2023-08-24T08:37:55;100779.88;;;19.31;100.00
25658;BME280;13517;59.320;18.042;2023-08-24T08:40:21;100781.47;;;19.33;100.00
25658;BME280;13517;59.320;18.042;2023-08-24T08:42:46;100756.00;;;19.23;100.00
25658;BME280;13517;59.320;18.042;2023-08-24T08:45:12;100772.84;;;19.28;100.00
25658;BME280;13517;59.320;18.042;2023-08-24T08:47:38;100773.94;;;19.36;100.00
25658;BME280;13517;59.320;18.042;2023-08-24T08:50:06;100773.16;;;19.43;100.00
25658;BME280;13517;59.320;18.042;2023-08-24T08:52:32;100760.72;;;19.31;100.00
25658;BME280;13517;59.320;18.042;2023-08-24T08:54:59;100779.94;;;19.57;100.00
25658;BME280;13517;59.320;18.042;2023-08-24T08:57:25;100745.78;;;19.43;100.00
25658;BME280;13517;59.320;18.042;2023-08-24T08:59:52;100770.72;;;19.58;100.00
25658;BME280;13517;59.320;18.042;2023-08-24T09:02:19;100780.13;;;19.74;100.00
25658;BME280;13517;59.320;18.042;2023-08-24T09:04:45;100773.53;;;19.85;100.00
25658;BME280;13517;59.320;18.042;2023-08-24T09:07:14;100776.63;;;19.90;100.00
25658;BME280;13517;59.320;18.042;2023-08-24T09:09:40;100780.22;;;19.91;100.00
25658;BME280;13517;59.320;18.042;2023-08-24T09:12:06;100726.25;;;19.46;100.00
25658;BME280;13517;59.320;18.042;2023-08-24T09:14:33;100774.44;;;19.76;100.00
25658;BME280;13517;59.320;18.042;2023-08-24T09:16:58;100748.16;;;19.65;100.00
25658;BME280;13517;59.320;18.042;2023-08-24T09:19:31;100769.31;;;19.72;100.00
25658;BME280;13517;59.320;18.042;2023-08-24T09:21:57;100764.56;;;19.83;100.00
25658;BME280;13517;59.320;18.042;2023-08-24T09:24:30;100741.66;;;19.66;100.00
25658;BME280;13517;59.320;18.042;2023-08-24T09:26:56;100759.56;;;19.96;100.00
25658;BME280;13517;59.320;18.042;2023-08-24T09:29:22;100763.19;;;19.79;100.00
25658;BME280;13517;59.320;18.042;2023-08-24T09:31:50;100747.22;;;19.56;100.00
25658;BME280;13517;59.320;18.042;2023-08-24T09:34:19;100717.66;;;19.41;100.00
25658;BME280;13517;59.320;18.042;2023-08-24T09:36:45;100762.19;;;19.62;100.00
25658;BME280;13517;59.320;18.042;2023-08-24T09:39:12;100741.56;;;19.76;100.00
25658;BME280;13517;59.320;18.042;2023-08-24T09:41:49;100747.09;;;19.84;100.00
25658;BME280;13517;59.320;18.042;2023-08-24T09:44:16;100766.13;;;19.85;100.00
25658;BME280;13517;59.320;18.042;2023-08-24T09:46:42;100744.53;;;20.00;100.00
25658;BME280;13517;59.320;18.042;2023-08-24T09:49:09;100763.09;;;19.89;100.00
25658;BME280;13517;59.320;18.042;2023-08-24T09:51:35;100706.97;;;19.30;100.00
25658;BME280;13517;59.320;18.042;2023-08-24T09:54:05;100767.50;;;19.45;100.00
25658;BME280;13517;59.320;18.042;2023-08-24T09:56:35;100771.06;;;19.37;100.00
25658;BME280;13517;59.320;18.042;2023-08-24T10:01:36;100768.72;;;19.42;100.00
25658;BME280;13517;59.320;18.042;2023-08-24T10:04:04;100757.66;;;19.34;100.00
25658;BME280;13517;59.320;18.042;2023-08-24T10:06:30;100762.56;;;19.49;100.00
25658;BME280;13517;59.320;18.042;2023-08-24T10:09:01;100759.38;;;19.53;100.00
25658;BME280;13517;59.320;18.042;2023-08-24T10:11:31;100756.16;;;19.58;100.00
25658;BME280;13517;59.320;18.042;2023-08-24T10:16:28;100759.72;;;19.77;100.00
25658;BME280;13517;59.320;18.042;2023-08-24T10:18:55;100759.09;;;19.83;100.00
25658;BME280;13517;59.320;18.042;2023-08-24T10:21:21;100750.56;;;19.86;100.00
25658;BME280;13517;59.320;18.042;2023-08-24T10:23:51;100743.50;;;19.83;100.00
25658;BME280;13517;59.320;18.042;2023-08-24T10:26:17;100743.50;;;19.83;100.00
25658;BME280;13517;59.320;18.042;2023-08-24T10:28:44;100750.63;;;19.94;100.00
25658;BME280;13517;59.320;18.042;2023-08-24T10:31:10;100751.41;;;19.86;100.00
25658;BME280;13517;59.320;18.042;2023-08-24T10:33:36;100745.09;;;19.86;100.00
25658;BME280;13517;59.320;18.042;2023-08-24T10:36:06;100707.69;;;19.58;100.00
25658;BME280;13517;59.320;18.042;2023-08-24T10:38:35;100746.94;;;19.85;100.00
25658;BME280;13517;59.320;18.042;2023-08-24T10:41:04;100728.25;;;19.81;100.00
25658;BME280;13517;59.320;18.042;2023-08-24T10:43:34;100728.75;;;20.03;100.00
25658;BME280;13517;59.320;18.042;2023-08-24T10:46:01;100717.03;;;19.92;100.00
25658;BME280;13517;59.320;18.042;2023-08-24T10:48:29;100733.22;;;20.04;100.00
25658;BME280;13517;59.320;18.042;2023-08-24T10:53:44;100696.50;;;19.96;100.00
25658;BME280;13517;59.320;18.042;2023-08-24T10:56:14;100743.91;;;20.15;100.00
25658;BME280;13517;59.320;18.042;2023-08-24T10:58:40;100716.47;;;20.07;100.00
25658;BME280;13517;59.320;18.042;2023-08-24T11:01:05;100736.59;;;19.97;100.00
25658;BME280;13517;59.320;18.042;2023-08-24T11:03:34;100735.97;;;20.04;100.00
25658;BME280;13517;59.320;18.042;2023-08-24T11:06:00;100738.22;;;19.90;100.00
25658;BME280;13517;59.320;18.042;2023-08-24T11:08:44;100724.66;;;19.62;100.00
25658;BME280;13517;59.320;18.042;2023-08-24T11:11:22;100728.88;;;19.74;100.00
25658;BME280;13517;59.320;18.042;2023-08-24T11:14:15;100735.78;;;19.79;100.00
25658;BME280;13517;59.320;18.042;2023-08-24T11:16:43;100703.91;;;19.78;100.00
25658;BME280;13517;59.320;18.042;2023-08-24T11:19:10;100732.69;;;20.00;100.00
25658;BME280;13517;59.320;18.042;2023-08-24T11:21:38;100738.00;;;20.02;100.00
25658;BME280;13517;59.320;18.042;2023-08-24T11:24:04;100722.59;;;20.00;100.00
25658;BME280;13517;59.320;18.042;2023-08-24T11:26:30;100727.81;;;19.94;100.00
25658;BME280;13517;59.320;18.042;2023-08-24T11:28:56;100717.66;;;19.86;100.00
25658;BME280;13517;59.320;18.042;2023-08-24T11:31:23;100685.53;;;19.70;100.00
25658;BME280;13517;59.320;18.042;2023-08-24T11:33:54;100733.94;;;19.87;100.00
25658;BME280;13517;59.320;18.042;2023-08-24T11:36:22;100684.47;;;19.44;100.00
25658;BME280;13517;59.320;18.042;2023-08-24T11:38:56;100713.91;;;19.60;99.16
25658;BME280;13517;59.320;18.042;2023-08-24T11:41:22;100730.25;;;19.70;100.00
25658;BME280;13517;59.320;18.042;2023-08-24T11:43:48;100723.75;;;19.71;100.00
25658;BME280;13517;59.320;18.042;2023-08-24T11:46:17;100659.78;;;19.36;100.00
25658;BME280;13517;59.320;18.042;2023-08-24T11:48:44;100702.22;;;19.58;100.00
25658;BME280;13517;59.320;18.042;2023-08-24T11:51:13;100718.25;;;19.71;99.35
25658;BME280;13517;59.320;18.042;2023-08-24T11:53:40;100721.34;;;19.77;99.25
25658;BME280;13517;59.320;18.042;2023-08-24T11:56:08;100726.53;;;19.80;98.50
25658;BME280;13517;59.320;18.042;2023-08-24T11:58:33;100716.59;;;19.79;97.83
25658;BME280;13517;59.320;18.042;2023-08-24T12:01:00;100720.66;;;19.74;98.02
25658;BME280;13517;59.320;18.042;2023-08-24T12:03:26;100677.91;;;19.37;98.90
25658;BME280;13517;59.320;18.042;2023-08-24T12:05:52;100721.88;;;19.54;99.73
25658;BME280;13517;59.320;18.042;2023-08-24T12:08:17;100700.59;;;19.48;99.78
25658;BME280;13517;59.320;18.042;2023-08-24T12:10:43;100683.78;;;19.42;97.84
25658;BME280;13517;59.320;18.042;2023-08-24T12:13:09;100711.44;;;19.57;96.92
25658;BME280;13517;59.320;18.042;2023-08-24T12:15:36;100712.78;;;19.71;96.21
25658;BME280;13517;59.320;18.042;2023-08-24T12:18:12;100713.75;;;19.89;95.97
25658;BME280;13517;59.320;18.042;2023-08-24T12:20:39;100712.03;;;20.14;95.24
25658;BME280;13517;59.320;18.042;2023-08-24T12:23:06;100712.72;;;20.16;94.26
25658;BME280;13517;59.320;18.042;2023-08-24T12:25:36;100709.78;;;20.09;92.83
25658;BME280;13517;59.320;18.042;2023-08-24T12:28:15;100707.50;;;20.05;93.21
25658;BME280;13517;59.320;18.042;2023-08-24T12:30:51;100699.81;;;20.08;91.32
25658;BME280;13517;59.320;18.042;2023-08-24T12:33:28;100710.59;;;20.02;92.69
25658;BME280;13517;59.320;18.042;2023-08-24T12:35:54;100700.56;;;19.92;93.58
25658;BME280;13517;59.320;18.042;2023-08-24T12:38:21;100701.56;;;19.91;93.78
25658;BME280;13517;59.320;18.042;2023-08-24T12:40:47;100699.84;;;19.90;94.06
25658;BME280;13517;59.320;18.042;2023-08-24T12:43:12;100705.78;;;20.04;93.74
25658;BME280;13517;59.320;18.042;2023-08-24T12:45:39;100698.81;;;20.09;92.74